Time;durP1;ratioP1;P1;durP2;ratioP2;P2;SDS_P1;SDS_P2;PMS_P1;PMS_P2;Temp;Humidity;BMP_temperature;BMP_pressure;BME280_temperature;BME280_humidity;BME280_pressure;Samples;Min_cycle;Max_cycle;Signal;HPM_P1;HPM_P2
2022/05/08 00:02:16;;;;;;;1.20;1.20;;;14.90;99.90;;;;;;5016687;28;20067;-79
2022/05/08 00:04:41;;;;;;;1.40;1.30;;;14.80;99.90;;;;;;5016892;28;20029;-80
2022/05/08 00:07:07;;;;;;;1.45;1.35;;;14.80;99.90;;;;;;5034620;28;20391;-80
2022/05/08 00:09:33;;;;;;;1.77;1.65;;;14.80;99.90;;;;;;5016515;28;20479;-80
2022/05/08 00:11:58;;;;;;;2.03;1.35;;;14.80;99.90;;;;;;5034405;28;20022;-80
2022/05/08 00:14:24;;;;;;;1.40;1.20;;;14.80;99.90;;;;;;5034339;28;20277;-80
2022/05/08 00:16:50;;;;;;;0.95;0.95;;;14.70;99.90;;;;;;5034343;28;20052;-80
2022/05/08 00:19:16;;;;;;;1.40;1.30;;;14.80;99.90;;;;;;5034488;28;20033;-80
2022/05/08 00:21:43;;;;;;;1.45;1.33;;;14.70;99.90;;;;;;5016315;28;20030;-80
2022/05/08 00:24:09;;;;;;;4.97;1.30;;;14.80;99.90;;;;;;5016526;28;20120;-80
2022/05/08 00:26:35;;;;;;;1.27;1.27;;;14.80;99.90;;;;;;5034258;28;20032;-80
2022/05/08 00:29:01;;;;;;;1.50;1.40;;;14.80;99.90;;;;;;5016399;28;20356;-80
2022/05/08 00:31:26;;;;;;;1.60;1.50;;;14.80;99.90;;;;;;5030757;28;20040;-80
2022/05/08 00:33:52;;;;;;;1.67;1.58;;;14.80;99.90;;;;;;5016233;28;20042;-80
2022/05/08 00:36:19;;;;;;;1.58;1.35;;;14.80;99.90;;;;;;5016190;28;20430;-80
2022/05/08 00:38:45;;;;;;;1.10;1.10;;;14.80;99.90;;;;;;5016043;28;20116;-80
2022/05/08 00:41:11;;;;;;;1.55;1.48;;;14.80;99.90;;;;;;5032420;28;20454;-80
2022/05/08 00:43:39;;;;;;;1.33;1.23;;;14.80;99.90;;;;;;5014100;28;20072;-81
2022/05/08 00:46:12;;;;;;;1.40;1.40;;;14.80;99.90;;;;;;5014307;28;20018;-79
2022/05/08 00:48:39;;;;;;;3.40;1.60;;;14.80;99.90;;;;;;5031800;28;20030;-80
2022/05/08 00:51:08;;;;;;;1.58;1.48;;;14.80;99.90;;;;;;5031864;28;20509;-80
2022/05/08 00:53:37;;;;;;;1.15;1.15;;;14.80;99.90;;;;;;5031964;28;20064;-80
2022/05/08 00:56:05;;;;;;;2.20;1.40;;;14.80;99.90;;;;;;5014189;28;20120;-80
2022/05/08 00:58:31;;;;;;;1.33;1.25;;;14.80;99.90;;;;;;5031918;28;20761;-80
2022/05/08 01:00:58;;;;;;;1.17;1.17;;;14.80;99.90;;;;;;5013852;28;20021;-80
2022/05/08 01:03:24;;;;;;;1.55;1.45;;;14.70;99.90;;;;;;5031401;28;20025;-80
2022/05/08 01:05:53;;;;;;;1.55;1.45;;;14.70;99.90;;;;;;5000192;28;20036;-80
2022/05/08 01:08:20;;;;;;;1.25;1.20;;;14.70;99.90;;;;;;5011526;28;20040;-80
2022/05/08 01:10:47;;;;;;;1.45;1.35;;;14.70;99.90;;;;;;5011486;28;20178;-79
2022/05/08 01:13:13;;;;;;;2.45;1.20;;;14.70;99.90;;;;;;5011691;28;20022;-80
2022/05/08 01:15:48;;;;;;;1.10;1.10;;;14.80;99.90;;;;;;5011538;28;20024;-80
2022/05/08 01:18:17;;;;;;;1.70;1.60;;;14.80;99.90;;;;;;5013133;28;20026;-80
2022/05/08 01:20:44;;;;;;;1.17;1.17;;;14.80;99.90;;;;;;5013390;28;20014;-80
2022/05/08 01:23:11;;;;;;;1.92;1.83;;;14.80;99.90;;;;;;5013276;28;20109;-80
2022/05/08 01:25:50;;;;;;;1.65;1.55;;;14.80;99.90;;;;;;5013225;28;20057;-80
2022/05/08 01:28:16;;;;;;;1.52;1.42;;;14.80;99.90;;;;;;4995588;28;20064;-80
2022/05/08 01:30:43;;;;;;;3.20;1.65;;;14.80;99.90;;;;;;4995562;28;20030;-80
2022/05/08 01:33:10;;;;;;;1.77;1.10;;;14.80;99.90;;;;;;5012818;28;20072;-80
2022/05/08 01:35:36;;;;;;;1.17;1.15;;;14.80;99.90;;;;;;5013082;28;20076;-80
2022/05/08 01:38:03;;;;;;;2.63;1.67;;;14.80;99.90;;;;;;5012900;28;20423;-81
2022/05/08 01:40:30;;;;;;;3.42;1.50;;;14.80;99.90;;;;;;5012957;28;20030;-80
2022/05/08 01:42:56;;;;;;;1.45;1.35;;;14.80;99.90;;;;;;4995321;28;20424;-80
2022/05/08 01:45:22;;;;;;;5.07;1.33;;;14.90;99.90;;;;;;4995428;28;20037;-80
2022/05/08 01:50:32;;;;;;;1.23;1.17;;;14.80;99.90;;;;;;5012995;28;20443;-80
2022/05/08 01:52:58;;;;;;;0.90;0.90;;;14.90;99.90;;;;;;5012823;28;20026;-80
2022/05/08 01:55:24;;;;;;;1.48;1.38;;;14.80;99.90;;;;;;4995341;28;20387;-80
2022/05/08 01:57:50;;;;;;;1.38;1.27;;;14.80;99.90;;;;;;5012685;28;20516;-79
2022/05/08 02:00:16;;;;;;;1.17;1.15;;;14.80;99.90;;;;;;5012525;28;20221;-80
2022/05/08 02:02:44;;;;;;;1.02;1.02;;;14.80;99.90;;;;;;5012333;28;20503;-80
2022/05/08 02:05:10;;;;;;;1.33;1.23;;;14.80;99.90;;;;;;4994690;28;20029;-80
2022/05/08 02:07:36;;;;;;;5.82;1.15;;;14.80;99.90;;;;;;4994716;28;20026;-80
2022/05/08 02:10:02;;;;;;;1.58;1.40;;;14.80;99.90;;;;;;5012488;28;20033;-80
2022/05/08 02:12:28;;;;;;;1.30;1.15;;;14.80;99.90;;;;;;4994767;28;20021;-80
2022/05/08 02:14:53;;;;;;;1.52;1.42;;;14.80;99.90;;;;;;5012363;28;20156;-80
2022/05/08 02:17:21;;;;;;;1.38;1.27;;;14.80;99.90;;;;;;5012428;28;20483;-80
2022/05/08 02:19:46;;;;;;;1.65;1.55;;;14.90;99.90;;;;;;4994749;28;20546;-80
2022/05/08 02:22:12;;;;;;;1.08;1.05;;;14.90;99.90;;;;;;5012258;28;20109;-79
2022/05/08 02:24:38;;;;;;;1.23;1.15;;;14.90;99.90;;;;;;5012304;28;20405;-80
2022/05/08 02:27:04;;;;;;;1.25;1.25;;;14.80;99.90;;;;;;5012265;28;20097;-80
2022/05/08 02:29:30;;;;;;;1.52;1.42;;;14.90;99.90;;;;;;5012018;28;20033;-80
2022/05/08 02:31:55;;;;;;;1.33;1.13;;;14.80;99.90;;;;;;4994208;28;20022;-80
2022/05/08 02:34:21;;;;;;;1.52;1.13;;;14.80;99.90;;;;;;5012169;28;20030;-80
2022/05/08 02:36:47;;;;;;;1.33;1.23;;;14.80;99.90;;;;;;4994413;28;20022;-80
2022/05/08 02:39:12;;;;;;;1.27;1.20;;;14.80;99.90;;;;;;5028570;28;20025;-80
2022/05/08 02:41:38;;;;;;;1.38;1.27;;;14.80;99.90;;;;;;5014072;28;20025;-80
2022/05/08 02:44:05;;;;;;;1.38;1.27;;;14.80;99.90;;;;;;5031752;28;20021;-80
2022/05/08 02:46:31;;;;;;;1.00;1.00;;;14.80;99.90;;;;;;5031686;28;20438;-79
2022/05/08 02:48:56;;;;;;;1.50;1.40;;;14.80;99.90;;;;;;5031437;28;20029;-80
2022/05/08 02:51:22;;;;;;;1.30;1.20;;;14.80;99.90;;;;;;5013829;28;20030;-80
2022/05/08 02:53:48;;;;;;;2.97;2.08;;;14.70;99.90;;;;;;5031610;28;20391;-80
2022/05/08 02:58:57;;;;;;;1.33;1.23;;;14.80;99.90;;;;;;5011833;28;20558;-80
2022/05/08 03:01:23;;;;;;;1.10;1.10;;;14.70;99.90;;;;;;5011575;28;20034;-79
2022/05/08 03:03:49;;;;;;;0.90;0.90;;;14.70;99.90;;;;;;5011699;28;20025;-73
2022/05/08 03:06:15;;;;;;;2.45;1.15;;;14.70;99.90;;;;;;5010446;28;20045;-73
2022/05/08 03:08:40;;;;;;;0.90;0.90;;;14.70;99.90;;;;;;5010462;28;20037;-73
2022/05/08 03:13:51;;;;;;;1.33;1.23;;;14.70;99.90;;;;;;5012068;28;20075;-73
2022/05/08 03:16:17;;;;;;;1.35;1.33;;;14.70;99.90;;;;;;5013763;28;20110;-73
2022/05/08 03:18:45;;;;;;;0.98;0.98;;;14.70;99.90;;;;;;5014536;28;20026;-73
2022/05/08 03:21:12;;;;;;;1.17;1.15;;;14.70;99.90;;;;;;5014409;28;20156;-74
2022/05/08 03:23:40;;;;;;;2.60;1.20;;;14.70;99.90;;;;;;5015385;28;20503;-73
2022/05/08 03:26:06;;;;;;;0.90;0.90;;;14.70;99.90;;;;;;5015564;28;20025;-73
2022/05/08 03:28:38;;;;;;;0.82;0.82;;;14.70;99.90;;;;;;5015453;28;20018;-73
2022/05/08 03:31:04;;;;;;;1.00;1.00;;;14.70;99.90;;;;;;5014211;28;20026;-73
2022/05/08 03:33:31;;;;;;;2.22;1.17;;;14.70;99.90;;;;;;5015198;28;20045;-73
2022/05/08 03:35:58;;;;;;;2.50;1.20;;;14.70;99.90;;;;;;5015401;28;20045;-74
2022/05/08 03:38:25;;;;;;;1.20;1.10;;;14.70;99.90;;;;;;5015338;28;20026;-73
2022/05/08 03:40:51;;;;;;;0.77;0.77;;;14.70;99.90;;;;;;5015438;28;20014;-73
2022/05/08 03:43:17;;;;;;;1.30;1.20;;;14.70;99.90;;;;;;5013922;28;20551;-73
2022/05/08 03:45:43;;;;;;;1.50;1.40;;;14.60;99.90;;;;;;5015112;28;20026;-73
2022/05/08 03:48:09;;;;;;;1.00;1.00;;;14.60;99.90;;;;;;5015043;28;20539;-73
2022/05/08 03:50:36;;;;;;;1.40;1.10;;;14.60;99.90;;;;;;5013976;28;20022;-73
2022/05/08 03:53:02;;;;;;;0.90;0.90;;;14.60;99.90;;;;;;5013655;28;20080;-73
2022/05/08 03:55:28;;;;;;;2.25;1.10;;;14.60;99.90;;;;;;5014992;28;20032;-73
2022/05/08 03:57:54;;;;;;;1.23;1.23;;;14.60;99.90;;;;;;5015003;28;20618;-73
2022/05/08 04:00:21;;;;;;;0.95;0.95;;;14.60;99.90;;;;;;5015013;28;20030;-74
2022/05/08 04:02:46;;;;;;;1.20;1.10;;;14.60;99.90;;;;;;5014865;28;20106;-73
2022/05/08 04:05:13;;;;;;;1.42;0.93;;;14.50;99.90;;;;;;5014888;28;20112;-73
2022/05/08 04:07:39;;;;;;;1.15;1.05;;;14.50;99.90;;;;;;5014865;28;20025;-74
2022/05/08 04:10:06;;;;;;;1.20;1.20;;;14.60;99.90;;;;;;5014674;28;20021;-73
2022/05/08 04:12:32;;;;;;;1.42;1.33;;;14.60;99.90;;;;;;5014568;28;20025;-73
2022/05/08 04:14:59;;;;;;;1.10;1.10;;;14.60;99.90;;;;;;5013330;28;20033;-73
2022/05/08 04:17:26;;;;;;;1.42;1.33;;;14.60;99.90;;;;;;5013231;28;20052;-73
2022/05/08 04:19:52;;;;;;;1.20;1.17;;;14.60;99.90;;;;;;5013366;28;20055;-74
2022/05/08 04:25:02;;;;;;;1.73;1.00;;;14.60;99.90;;;;;;5014868;28;20169;-73
2022/05/08 04:27:27;;;;;;;1.27;1.17;;;14.60;99.90;;;;;;5014018;28;20084;-73
2022/05/08 04:29:53;;;;;;;1.10;1.10;;;14.60;99.90;;;;;;5013265;28;20029;-74
2022/05/08 04:32:19;;;;;;;2.90;1.10;;;14.60;99.90;;;;;;5014316;28;20076;-74
2022/05/08 04:34:45;;;;;;;1.17;1.08;;;14.60;99.90;;;;;;5014259;28;20392;-73
2022/05/08 04:37:10;;;;;;;1.50;1.17;;;14.60;99.90;;;;;;5013264;28;20160;-73
2022/05/08 04:39:36;;;;;;;1.13;1.13;;;14.60;99.90;;;;;;5015843;28;20029;-73
2022/05/08 04:42:02;;;;;;;1.40;1.27;;;14.60;99.90;;;;;;5033949;28;20028;-73
2022/05/08 04:44:28;;;;;;;1.38;1.08;;;14.60;99.90;;;;;;5016377;28;20434;-73
2022/05/08 04:46:54;;;;;;;1.33;1.23;;;14.60;99.90;;;;;;5033793;28;20033;-73
2022/05/08 04:49:20;;;;;;;1.20;0.90;;;14.60;99.90;;;;;;5018973;28;20022;-73
2022/05/08 04:51:46;;;;;;;1.35;1.25;;;14.70;99.90;;;;;;5014182;28;20372;-74
2022/05/08 04:54:11;;;;;;;1.00;1.00;;;14.70;99.90;;;;;;5013988;28;20097;-73
2022/05/08 04:56:37;;;;;;;0.90;0.90;;;14.70;99.90;;;;;;4996401;28;20026;-74
2022/05/08 04:59:03;;;;;;;1.27;1.17;;;14.70;99.90;;;;;;5014127;28;20122;-73
2022/05/08 05:01:29;;;;;;;2.05;0.90;;;14.70;99.90;;;;;;5013644;28;20037;-74
2022/05/08 05:03:55;;;;;;;1.33;1.30;;;14.70;99.90;;;;;;5013791;28;20021;-73
2022/05/08 05:06:21;;;;;;;0.93;0.93;;;14.70;99.90;;;;;;5013990;28;20045;-74
2022/05/08 05:08:46;;;;;;;0.90;0.90;;;14.70;99.90;;;;;;5013619;28;20034;-74
2022/05/08 05:11:12;;;;;;;1.30;1.20;;;14.70;99.90;;;;;;5013707;28;20498;-74
2022/05/08 05:13:38;;;;;;;1.15;1.05;;;14.80;99.90;;;;;;5013749;28;20021;-74
2022/05/08 05:16:07;;;;;;;1.15;1.15;;;14.80;99.90;;;;;;5013528;28;20057;-74
2022/05/08 05:18:33;;;;;;;0.82;0.82;;;14.80;99.90;;;;;;4995837;28;20069;-74
2022/05/08 05:20:59;;;;;;;2.28;1.30;;;14.80;99.90;;;;;;4996034;28;20058;-74
2022/05/08 05:23:25;;;;;;;0.98;0.98;;;14.90;99.90;;;;;;5013394;28;20605;-74
2022/05/08 05:25:51;;;;;;;1.13;1.02;;;14.90;99.90;;;;;;5013383;28;20030;-73
2022/05/08 05:28:17;;;;;;;1.15;1.15;;;14.90;99.90;;;;;;5013433;28;20056;-74
2022/05/08 05:30:43;;;;;;;1.02;1.02;;;14.90;99.90;;;;;;5013162;28;20014;-73
2022/05/08 05:33:15;;;;;;;2.15;1.10;;;14.90;99.90;;;;;;5012884;28;20041;-74
2022/05/08 05:35:41;;;;;;;1.08;1.08;;;14.90;99.90;;;;;;5013128;28;20059;-73
2022/05/08 05:38:07;;;;;;;0.80;0.80;;;14.90;99.90;;;;;;4994500;28;20467;-73
2022/05/08 05:40:33;;;;;;;1.17;1.17;;;15.00;99.90;;;;;;5013040;28;20113;-74
2022/05/08 05:42:59;;;;;;;1.48;1.25;;;15.00;99.90;;;;;;5013169;28;20062;-74
2022/05/08 05:45:26;;;;;;;1.15;1.05;;;15.10;99.90;;;;;;5012754;28;20105;-74
2022/05/08 05:47:54;;;;;;;3.92;1.20;;;15.10;99.90;;;;;;5011971;28;20034;-74
2022/05/08 05:50:21;;;;;;;1.02;1.02;;;15.10;99.90;;;;;;5012754;28;20042;-74
2022/05/08 05:52:48;;;;;;;1.30;1.20;;;15.10;99.90;;;;;;4994965;28;20032;-74
2022/05/08 05:55:14;;;;;;;0.90;0.90;;;15.10;99.90;;;;;;4995088;28;20022;-74
2022/05/08 05:57:40;;;;;;;0.90;0.90;;;15.10;99.90;;;;;;5012657;28;20499;-73
2022/05/08 06:00:11;;;;;;;3.58;1.58;;;15.10;99.90;;;;;;4995189;28;20081;-73
2022/05/08 06:02:37;;;;;;;0.90;0.90;;;15.10;99.90;;;;;;5012672;28;20041;-73
2022/05/08 06:05:06;;;;;;;2.35;1.10;;;15.10;99.90;;;;;;4994870;28;20072;-73
2022/05/08 06:07:35;;;;;;;1.30;1.20;;;15.10;99.90;;;;;;5012643;28;20537;-73
2022/05/08 06:10:02;;;;;;;1.25;1.13;;;15.10;99.90;;;;;;5012565;28;20022;-73
2022/05/08 06:12:28;;;;;;;1.20;1.20;;;15.10;99.90;;;;;;4994773;28;20022;-73
2022/05/08 06:14:54;;;;;;;1.20;1.20;;;15.10;99.90;;;;;;5012502;28;20549;-73
2022/05/08 06:17:19;;;;;;;1.48;1.13;;;15.10;99.90;;;;;;5012588;28;20029;-73
2022/05/08 06:19:45;;;;;;;1.30;1.20;;;15.00;99.90;;;;;;5012313;28;20049;-73
2022/05/08 06:22:11;;;;;;;1.25;1.17;;;15.00;99.90;;;;;;5012365;28;20072;-73
2022/05/08 06:24:38;;;;;;;3.38;1.17;;;15.00;99.90;;;;;;4994838;28;20387;-73
2022/05/08 06:27:05;;;;;;;1.30;1.20;;;15.00;99.90;;;;;;4994591;28;20037;-73
2022/05/08 06:29:31;;;;;;;1.40;1.30;;;14.90;99.90;;;;;;5012128;28;20026;-74
2022/05/08 06:31:57;;;;;;;1.45;1.35;;;14.90;99.90;;;;;;5012051;28;20022;-73
2022/05/08 06:34:23;;;;;;;1.50;1.20;;;14.90;99.90;;;;;;5012071;28;20113;-73
2022/05/08 06:36:49;;;;;;;1.27;1.20;;;15.00;99.90;;;;;;4994418;28;20017;-73
2022/05/08 06:39:15;;;;;;;1.80;1.10;;;15.00;99.90;;;;;;5012181;28;20120;-74
2022/05/08 06:41:41;;;;;;;1.98;1.35;;;15.00;99.90;;;;;;5014573;28;20061;-74
2022/05/08 06:44:07;;;;;;;1.30;1.20;;;14.90;99.90;;;;;;5018240;28;20108;-73
2022/05/08 06:46:35;;;;;;;0.90;0.90;;;14.90;99.90;;;;;;5011948;28;20034;-73
2022/05/08 06:49:05;;;;;;;1.40;1.30;;;14.90;99.90;;;;;;5011628;28;20030;-73
2022/05/08 06:51:31;;;;;;;1.67;1.58;;;14.90;99.90;;;;;;5020411;28;20166;-73
2022/05/08 06:53:57;;;;;;;1.98;1.30;;;14.90;99.90;;;;;;5022782;28;20056;-73
2022/05/08 06:56:25;;;;;;;1.70;1.60;;;15.00;99.90;;;;;;5022293;28;20017;-74
2022/05/08 07:01:36;;;;;;;1.90;1.20;;;15.00;99.90;;;;;;5020694;28;20099;-74
2022/05/08 07:04:12;;;;;;;1.27;1.20;;;15.00;99.90;;;;;;5022470;28;20032;-74
2022/05/08 07:06:39;;;;;;;0.98;0.98;;;15.00;99.90;;;;;;5004464;28;20034;-74
2022/05/08 07:09:06;;;;;;;1.88;1.70;;;14.90;99.90;;;;;;5004646;28;20056;-74
2022/05/08 07:11:32;;;;;;;1.75;1.30;;;14.90;99.90;;;;;;5000794;28;20460;-74
2022/05/08 07:13:59;;;;;;;1.00;1.00;;;14.90;99.90;;;;;;5001749;28;20057;-74
2022/05/08 07:16:25;;;;;;;1.55;1.45;;;14.90;99.90;;;;;;5020755;28;20502;-74
2022/05/08 07:18:51;;;;;;;2.28;1.10;;;15.00;99.90;;;;;;5020664;28;20021;-74
2022/05/08 07:21:29;;;;;;;1.75;1.13;;;15.00;99.90;;;;;;5018867;28;20049;-74
2022/05/08 07:23:55;;;;;;;1.10;1.10;;;15.00;99.90;;;;;;5022258;28;20101;-74
2022/05/08 07:26:21;;;;;;;1.73;1.63;;;15.10;99.90;;;;;;5012716;28;20108;-74
2022/05/08 07:28:47;;;;;;;1.30;1.10;;;15.10;99.90;;;;;;5006961;28;20033;-74
2022/05/08 07:31:13;;;;;;;1.40;1.20;;;15.10;99.90;;;;;;5023042;28;20017;-80
2022/05/08 07:33:39;;;;;;;1.67;1.40;;;15.10;99.90;;;;;;5023507;28;20050;-74
2022/05/08 07:36:15;;;;;;;1.40;1.30;;;15.10;99.90;;;;;;5004484;28;20084;-74
2022/05/08 07:38:41;;;;;;;1.45;1.35;;;15.20;99.90;;;;;;5017450;28;20057;-74
2022/05/08 07:41:08;;;;;;;1.42;1.25;;;15.20;99.90;;;;;;5015807;28;20144;-74
2022/05/08 07:43:34;;;;;;;1.25;1.23;;;15.20;99.90;;;;;;5003942;28;20032;-74
2022/05/08 07:46:00;;;;;;;5.32;1.27;;;15.30;99.90;;;;;;5018716;28;20029;-74
2022/05/08 07:48:26;;;;;;;1.00;1.00;;;15.30;99.90;;;;;;5023254;28;20041;-74
2022/05/08 07:50:57;;;;;;;2.25;2.05;;;15.30;99.90;;;;;;5017097;28;20034;-74
2022/05/08 07:53:23;;;;;;;2.78;1.48;;;15.30;99.90;;;;;;5021321;28;20025;-74
2022/05/08 07:55:52;;;;;;;1.40;1.30;;;15.30;99.90;;;;;;5018515;28;20025;-74
2022/05/08 07:58:19;;;;;;;1.55;1.45;;;15.40;99.90;;;;;;5019785;28;20038;-74
2022/05/08 08:00:54;;;;;;;5.68;1.73;;;15.40;99.90;;;;;;5021095;28;20072;-74
2022/05/08 08:03:21;;;;;;;1.83;1.73;;;15.40;99.90;;;;;;5006307;28;20125;-74
2022/05/08 08:05:48;;;;;;;2.00;1.85;;;15.40;99.90;;;;;;5026893;28;20037;-74
2022/05/08 08:08:16;;;;;;;1.58;1.35;;;15.50;99.90;;;;;;5029554;28;20430;-74
2022/05/08 08:10:42;;;;;;;2.05;1.52;;;15.50;99.90;;;;;;5009502;28;20042;-74
2022/05/08 08:13:08;;;;;;;1.67;1.58;;;15.50;99.90;;;;;;5006306;28;20038;-80
2022/05/08 08:15:34;;;;;;;3.08;1.85;;;15.50;99.90;;;;;;5004933;28;20521;-80
2022/05/08 08:18:00;;;;;;;2.63;1.38;;;15.60;99.90;;;;;;5025019;28;20529;-80
2022/05/08 08:20:25;;;;;;;1.67;1.58;;;15.60;99.90;;;;;;5026266;28;20026;-81
2022/05/08 08:22:53;;;;;;;2.65;1.60;;;15.70;99.90;;;;;;5024523;28;20030;-80
2022/05/08 08:25:20;;;;;;;1.55;1.48;;;15.70;99.90;;;;;;5029160;28;20018;-80
2022/05/08 08:27:46;;;;;;;2.42;1.50;;;15.70;99.90;;;;;;5024804;28;20041;-80
2022/05/08 08:30:13;;;;;;;1.00;1.00;;;15.80;99.90;;;;;;5021213;28;20030;-80
2022/05/08 08:32:39;;;;;;;1.13;1.05;;;15.80;99.90;;;;;;5019496;28;20075;-80
2022/05/08 08:35:05;;;;;;;1.00;1.00;;;15.90;99.90;;;;;;5033770;28;20021;-75
2022/05/08 08:37:31;;;;;;;1.63;1.52;;;15.90;99.90;;;;;;5027072;28;20545;-75
2022/05/08 08:39:57;;;;;;;1.55;1.45;;;15.90;99.90;;;;;;5032738;28;20021;-74
2022/05/08 08:42:30;;;;;;;1.80;1.40;;;16.00;99.90;;;;;;5032739;28;20475;-74
2022/05/08 08:48:08;;;;;;;1.30;1.20;;;16.00;99.90;;;;;;5022451;28;20033;-74
2022/05/08 08:50:34;;;;;;;1.25;1.10;;;16.20;99.90;;;;;;5007208;28;20060;-74
2022/05/08 08:53:05;;;;;;;1.27;1.20;;;16.20;99.90;;;;;;5024639;28;20527;-74
2022/05/08 08:55:31;;;;;;;1.27;1.20;;;16.30;99.90;;;;;;5005755;28;20109;-74
2022/05/08 08:57:58;;;;;;;1.40;1.30;;;16.30;99.90;;;;;;5021484;28;20026;-74
2022/05/08 09:00:24;;;;;;;1.75;1.65;;;16.40;99.90;;;;;;5007621;28;20025;-74
2022/05/08 09:02:52;;;;;;;1.77;1.67;;;16.40;99.90;;;;;;5023431;28;20448;-74
2022/05/08 09:05:18;;;;;;;2.80;1.85;;;16.50;99.90;;;;;;5005287;28;20022;-74
2022/05/08 09:07:48;;;;;;;1.65;1.55;;;16.50;99.90;;;;;;5005512;28;20045;-74
2022/05/08 09:10:20;;;;;;;1.23;1.23;;;16.60;99.90;;;;;;5024175;28;20064;-80
2022/05/08 09:12:51;;;;;;;4.10;1.60;;;16.60;99.90;;;;;;5021195;28;20076;-81
2022/05/08 09:15:17;;;;;;;1.73;1.63;;;16.60;99.90;;;;;;5023969;28;20388;-80
2022/05/08 09:17:44;;;;;;;1.48;1.30;;;16.60;99.90;;;;;;5009412;28;20022;-80
2022/05/08 09:20:30;;;;;;;1.70;1.60;;;16.70;99.90;;;;;;5008690;28;20483;-80
2022/05/08 09:23:09;;;;;;;5.88;1.50;;;16.70;99.90;;;;;;5008226;28;20112;-80
2022/05/08 09:25:51;;;;;;;1.33;1.23;;;16.70;99.90;;;;;;5023051;28;20025;-80
2022/05/08 09:28:20;;;;;;;1.05;1.05;;;16.70;99.90;;;;;;5015132;28;20060;-80
2022/05/08 09:31:06;;;;;;;1.45;1.35;;;16.70;99.90;;;;;;5032307;28;20029;-80
2022/05/08 09:33:34;;;;;;;1.77;1.60;;;16.70;99.90;;;;;;4995290;28;20515;-80
2022/05/08 09:36:11;;;;;;;1.50;1.40;;;16.70;99.90;;;;;;5009655;28;20111;-80
2022/05/08 09:38:53;;;;;;;2.85;1.70;;;16.70;99.90;;;;;;5019422;28;20048;-80
2022/05/08 09:41:23;;;;;;;2.80;2.33;;;16.70;99.90;;;;;;5020694;28;20025;-80
2022/05/08 09:43:51;;;;;;;1.77;1.67;;;16.70;99.90;;;;;;5020935;28;20079;-80
2022/05/08 09:46:20;;;;;;;2.17;1.98;;;16.70;99.90;;;;;;5020410;28;20025;-80
2022/05/08 09:48:46;;;;;;;2.50;2.30;;;16.70;99.90;;;;;;5028783;28;20029;-82
2022/05/08 09:51:16;;;;;;;3.08;2.42;;;16.70;99.90;;;;;;5015963;28;20029;-81
2022/05/08 09:53:44;;;;;;;4.82;2.08;;;16.70;99.90;;;;;;5026993;28;20060;-81
2022/05/08 09:56:12;;;;;;;2.20;2.00;;;16.70;99.90;;;;;;5021438;28;20014;-81
2022/05/08 09:58:40;;;;;;;1.90;1.80;;;16.70;99.90;;;;;;5025939;28;20522;-81
2022/05/08 10:01:07;;;;;;;2.20;2.00;;;16.70;99.90;;;;;;5017211;28;20084;-81
2022/05/08 10:03:33;;;;;;;2.88;2.15;;;16.70;99.90;;;;;;5012654;28;20101;-81
2022/05/08 10:06:00;;;;;;;2.47;2.30;;;16.70;99.90;;;;;;5016637;28;20076;-81
2022/05/08 10:08:39;;;;;;;3.40;3.10;;;16.70;99.90;;;;;;5008722;28;20035;-81
2022/05/08 10:14:04;;;;;;;2.60;2.40;;;16.80;99.90;;;;;;5021147;28;20052;-81
2022/05/08 10:16:48;;;;;;;;;;;16.70;99.90;;;;;;5010192;28;20076;-81
2022/05/08 10:19:21;;;;;;;1.85;1.75;;;16.70;99.90;;;;;;5017287;28;19905;-81
2022/05/08 10:22:14;;;;;;;2.58;1.73;;;16.70;99.90;;;;;;5022168;28;20069;-81
2022/05/08 10:24:47;;;;;;;1.88;1.77;;;16.70;99.90;;;;;;5021733;28;20037;-82
2022/05/08 10:27:25;;;;;;;2.47;2.38;;;16.70;99.90;;;;;;5023172;28;20036;-82
2022/05/08 10:29:50;;;;;;;2.80;2.60;;;16.60;99.90;;;;;;5022111;28;20021;-82
2022/05/08 10:32:31;;;;;;;2.67;2.47;;;16.60;99.90;;;;;;5021488;28;20045;-82
2022/05/08 10:35:10;;;;;;;4.70;4.30;;;16.60;99.90;;;;;;5020015;28;20022;-81
2022/05/08 10:37:40;;;;;;;4.45;3.58;;;16.70;99.90;;;;;;5018574;28;20022;-82
2022/05/08 10:40:24;;;;;;;5.72;4.00;;;16.70;99.90;;;;;;5024367;28;20029;-82
2022/05/08 10:43:12;;;;;;;3.92;3.58;;;16.70;99.90;;;;;;5022496;28;20034;-82
2022/05/08 10:45:41;;;;;;;4.03;3.50;;;16.60;99.90;;;;;;5021263;28;20423;-81
2022/05/08 10:48:08;;;;;;;3.53;3.22;;;16.70;99.90;;;;;;5020243;28;20051;-81
2022/05/08 10:50:37;;;;;;;3.80;2.85;;;16.70;99.90;;;;;;5021902;28;20023;-81
2022/05/08 10:53:04;;;;;;;5.28;4.38;;;16.70;99.90;;;;;;5021620;28;21157;-82
2022/05/08 10:55:30;;;;;;;4.75;4.25;;;16.70;99.90;;;;;;5020420;28;20022;-82
2022/05/08 10:57:56;;;;;;;5.53;4.15;;;16.70;99.90;;;;;;5003943;28;20590;-81
2022/05/08 11:00:23;;;;;;;6.05;5.43;;;16.70;99.90;;;;;;5021191;28;20101;-81
2022/05/08 11:02:52;;;;;;;11.05;5.53;;;16.70;99.90;;;;;;5020244;28;20484;-81
2022/05/08 11:05:31;;;;;;;6.15;4.60;;;16.70;99.90;;;;;;5024288;28;20426;-82
2022/05/08 11:08:05;;;;;;;4.40;4.05;;;16.70;99.90;;;;;;5019043;28;20205;-81
2022/05/08 11:10:37;;;;;;;4.97;4.35;;;16.70;99.90;;;;;;5022664;28;20029;-82
2022/05/08 11:13:15;;;;;;;7.30;4.10;;;16.70;99.90;;;;;;5020396;28;20479;-81
2022/05/08 11:15:41;;;;;;;5.68;4.10;;;16.70;99.90;;;;;;5021525;28;20472;-82
2022/05/08 11:18:09;;;;;;;5.00;3.97;;;16.70;99.90;;;;;;5002316;28;20088;-82
2022/05/08 11:20:48;;;;;;;4.30;3.92;;;16.80;99.90;;;;;;5021384;28;20418;-81
2022/05/08 11:23:16;;;;;;;3.90;3.70;;;16.80;99.90;;;;;;5021672;28;20112;-83
2022/05/08 11:25:47;;;;;;;4.97;4.47;;;16.80;99.90;;;;;;5014234;28;20058;-82
2022/05/08 11:28:14;;;;;;;5.22;4.28;;;16.80;99.90;;;;;;5022556;28;20021;-82
2022/05/08 11:30:40;;;;;;;5.90;4.82;;;16.90;99.90;;;;;;5000587;28;20022;-81
2022/05/08 11:36:04;;;;;;;4.70;4.30;;;16.90;99.90;;;;;;5031412;28;20086;-82
2022/05/08 11:38:43;;;;;;;5.00;4.40;;;16.90;99.90;;;;;;5035148;28;20029;-82
2022/05/08 11:41:12;;;;;;;6.00;4.68;;;16.90;99.90;;;;;;5017229;28;20033;-81
2022/05/08 11:43:42;;;;;;;4.45;4.15;;;17.00;99.90;;;;;;5035098;28;20128;-82
2022/05/08 11:46:13;;;;;;;4.95;4.55;;;16.90;99.90;;;;;;5034822;28;20021;-82
2022/05/08 11:48:42;;;;;;;6.28;4.22;;;17.00;99.90;;;;;;5017236;28;20025;-81
2022/05/08 11:51:16;;;;;;;5.55;4.35;;;17.00;99.90;;;;;;5030542;28;20021;-82
2022/05/08 11:53:50;;;;;;;15.10;5.05;;;17.10;99.90;;;;;;5020464;28;20021;-82
2022/05/08 11:56:35;;;;;;;4.63;4.22;;;17.10;99.90;;;;;;5020323;28;20383;-81
2022/05/08 11:59:06;;;;;;;5.60;5.20;;;17.10;99.90;;;;;;5005121;28;20036;-82
2022/05/08 12:01:34;;;;;;;8.68;5.63;;;17.20;99.90;;;;;;5024416;28;20026;-82
2022/05/08 12:04:36;;;;;;;5.15;4.72;;;17.20;99.90;;;;;;5030883;28;20483;-82
2022/05/08 12:07:06;;;;;;;5.57;4.70;;;17.30;99.90;;;;;;5027661;28;20105;-82
2022/05/08 12:09:34;;;;;;;4.70;4.40;;;17.30;99.90;;;;;;4997292;28;20025;-81
2022/05/08 12:12:35;;;;;;;9.30;7.95;;;17.30;99.90;;;;;;4997297;28;20026;-82
2022/05/08 12:15:07;;;;;;;18.70;12.90;;;17.40;99.90;;;;;;5014713;28;20069;-82
2022/05/08 12:17:42;;;;;;;12.18;8.48;;;17.40;99.90;;;;;;4997002;28;20069;-82
2022/05/08 12:20:17;;;;;;;8.32;5.97;;;17.50;99.90;;;;;;5014729;28;20025;-82
2022/05/08 12:22:44;;;;;;;5.88;5.28;;;17.50;99.90;;;;;;4996724;28;20579;-81
2022/05/08 12:25:11;;;;;;;8.88;5.43;;;17.60;99.90;;;;;;5014723;28;20525;-81
2022/05/08 12:27:38;;;;;;;5.35;4.85;;;17.70;99.90;;;;;;4996997;28;20127;-82
2022/05/08 12:30:09;;;;;;;6.32;5.57;;;17.70;99.90;;;;;;5014347;28;20022;-82
2022/05/08 12:32:36;;;;;;;6.07;4.93;;;17.80;99.90;;;;;;5014093;28;20124;-81
2022/05/08 12:35:03;;;;;;;5.93;4.93;;;18.00;99.90;;;;;;5014235;28;20480;-82
2022/05/08 12:37:29;;;;;;;5.38;4.85;;;18.00;99.90;;;;;;5014227;28;20022;-82
2022/05/08 12:39:55;;;;;;;4.93;4.53;;;18.10;99.90;;;;;;4996613;28;20099;-81
2022/05/08 12:42:21;;;;;;;4.85;4.30;;;18.20;99.90;;;;;;5016523;28;20103;-82
2022/05/08 12:44:47;;;;;;;4.28;3.90;;;18.30;99.90;;;;;;5014634;28;20030;-82
2022/05/08 12:47:14;;;;;;;5.45;4.35;;;18.30;99.90;;;;;;5013980;28;20022;-81
2022/05/08 12:49:41;;;;;;;4.75;4.35;;;18.40;99.90;;;;;;5033802;28;20030;-82
2022/05/08 12:52:09;;;;;;;4.35;4.05;;;18.50;99.90;;;;;;5030923;28;20022;-80
2022/05/08 12:54:34;;;;;;;4.78;4.38;;;18.50;99.90;;;;;;5006742;28;20022;-81
2022/05/08 12:57:01;;;;;;;4.30;3.90;;;18.60;99.90;;;;;;5023210;28;20043;-81
2022/05/08 13:02:13;;;;;;;3.90;3.40;;;18.70;99.90;;;;;;5034048;28;20040;-81
2022/05/08 13:04:39;;;;;;;7.55;4.03;;;18.70;99.90;;;;;;5033592;28;20036;-81
2022/05/08 13:07:05;;;;;;;4.18;3.85;;;18.80;99.90;;;;;;5015557;28;20029;-81
2022/05/08 13:09:31;;;;;;;3.53;3.25;;;18.90;99.90;;;;;;5033555;28;20032;-81
2022/05/08 13:11:57;;;;;;;5.13;3.85;;;18.90;99.90;;;;;;5033330;28;20395;-81
2022/05/08 13:14:22;;;;;;;3.80;3.47;;;18.90;99.90;;;;;;5033526;28;20476;-81
2022/05/08 13:16:49;;;;;;;3.90;3.50;;;18.90;99.90;;;;;;5028293;28;20025;-81
2022/05/08 13:19:15;;;;;;;3.63;2.97;;;18.90;99.90;;;;;;5009686;28;20029;-82